createdAt,value
2019-02-19T00:00:47.511Z,83.37
2019-02-19T00:01:46.120Z,83.09
2019-02-19T00:02:44.681Z,83.37
2019-02-19T00:03:43.328Z,83.18
2019-02-19T00:04:41.858Z,83.37
2019-02-19T00:05:40.454Z,83.28
2019-02-19T00:06:39.102Z,83.47
2019-02-19T00:07:37.649Z,83.09
2019-02-19T00:08:36.565Z,83.09
2019-02-19T00:09:35.233Z,83.09
2019-02-19T00:10:33.785Z,83.28
2019-02-19T00:11:32.787Z,83.09
2019-02-19T00:12:31.541Z,82.9
2019-02-19T00:13:30.107Z,83.23
2019-02-19T00:14:28.784Z,83.37
2019-02-19T00:15:27.467Z,83.33
2019-02-19T00:16:25.957Z,82.99
2019-02-19T00:17:24.685Z,83.09
2019-02-19T00:18:23.311Z,83.04
2019-02-19T00:19:21.849Z,83.37
2019-02-19T00:20:20.554Z,83.33
2019-02-19T00:21:19.327Z,83.04
2019-02-19T00:22:17.884Z,83.62
2019-02-19T00:23:16.485Z,83.33
2019-02-19T00:24:15.091Z,83.28
2019-02-19T00:25:13.616Z,83.81
2019-02-19T00:26:12.144Z,83.62
2019-02-19T00:27:11.063Z,83.33
2019-02-19T00:28:09.707Z,84.47
2019-02-19T00:29:08.452Z,83.75
2019-02-19T00:30:07.173Z,83.42
2019-02-19T00:31:05.745Z,83.56
2019-02-19T00:32:04.257Z,83.71
2019-02-19T00:33:02.804Z,83.81
2019-02-19T00:34:01.366Z,83.52
2019-02-19T00:34:59.886Z,83.52
2019-02-19T00:35:58.723Z,83.42
2019-02-19T00:36:57.300Z,83.81
2019-02-19T00:37:55.841Z,84.28
2019-02-19T00:38:54.466Z,84
2019-02-19T00:39:53.102Z,84.38
2019-02-19T00:40:51.664Z,84.19
2019-02-19T00:41:50.190Z,84.38
2019-02-19T00:42:48.825Z,84.28
2019-02-19T00:43:47.394Z,84.38
2019-02-19T00:44:45.964Z,84.19
2019-02-19T00:45:44.771Z,84.85
2019-02-19T00:46:43.357Z,84.76
2019-02-19T00:47:41.918Z,85.14
2019-02-19T00:48:40.767Z,84.85
2019-02-19T00:49:39.476Z,85.14
2019-02-19T00:50:38.049Z,84.76
2019-02-19T00:51:36.595Z,84.95
2019-02-19T00:52:35.197Z,85.33
2019-02-19T00:53:33.784Z,85.04
2019-02-19T00:54:32.339Z,85.24
2019-02-19T00:55:31.065Z,84.38
2019-02-19T00:56:29.697Z,84.76
2019-02-19T00:57:28.269Z,84.85
2019-02-19T00:58:26.856Z,84.76
2019-02-19T00:59:25.513Z,84.56
2019-02-19T01:00:24.075Z,84.56
2019-02-19T01:01:22.635Z,85.14
2019-02-19T01:02:21.260Z,85.24
2019-02-19T01:03:19.833Z,85.24
2019-02-19T01:04:18.534Z,85.24
2019-02-19T01:05:17.183Z,85.24
2019-02-19T01:06:15.755Z,84.85
2019-02-19T01:07:14.284Z,84.95
2019-02-19T01:08:12.879Z,84.95
2019-02-19T01:09:11.518Z,85.24
2019-02-19T01:10:10.186Z,85.42
2019-02-19T01:11:08.805Z,85.42
2019-02-19T01:12:07.408Z,85.24
2019-02-19T01:13:05.960Z,85.14
2019-02-19T01:14:04.503Z,85.04
2019-02-19T01:15:03.178Z,85.14
2019-02-19T01:16:01.693Z,85.24
2019-02-19T01:17:00.229Z,85.42
2019-02-19T01:17:58.836Z,85.14
2019-02-19T01:18:57.446Z,85.14
2019-02-19T01:19:55.967Z,85.04
2019-02-19T01:20:54.815Z,85.24
2019-02-19T01:21:53.485Z,85.24
2019-02-19T01:22:52.051Z,85.04
2019-02-19T01:23:50.601Z,85.24
2019-02-19T01:24:49.144Z,85.42
2019-02-19T01:25:47.704Z,84.95
2019-02-19T01:26:46.259Z,85.61
2019-02-19T01:27:44.860Z,85.61
2019-02-19T01:28:43.480Z,85.42
2019-02-19T01:29:42.015Z,85.99
2019-02-19T01:30:40.632Z,85.61
2019-02-19T01:31:39.349Z,85.9
2019-02-19T01:32:37.899Z,85.9
2019-02-19T01:33:36.446Z,85.14
2019-02-19T01:34:35.144Z,85.52
2019-02-19T01:35:33.687Z,85.61
2019-02-19T01:36:32.226Z,85.95
2019-02-19T01:37:30.815Z,85.61
2019-02-19T01:38:29.658Z,86.28
2019-02-19T01:39:28.298Z,86.09
2019-02-19T01:40:27.029Z,85.61
2019-02-19T01:41:25.584Z,86.09
2019-02-19T01:42:24.156Z,86.14
2019-02-19T01:43:22.846Z,86.33
2019-02-19T01:44:21.416Z,86.28
2019-02-19T01:45:19.962Z,86.05
2019-02-19T01:46:18.670Z,85.95
2019-02-19T01:47:17.254Z,86.24
2019-02-19T01:48:15.795Z,85.95
2019-02-19T01:49:14.394Z,86.24
2019-02-19T01:50:13.314Z,86.43
2019-02-19T01:51:11.865Z,86.99
2019-02-19T01:52:10.413Z,87.38
2019-02-19T01:53:09.070Z,87.57
2019-02-19T01:54:07.616Z,87.76
2019-02-19T01:55:06.201Z,87.66
2019-02-19T01:56:05.032Z,87.47
2019-02-19T01:57:03.576Z,87.66
2019-02-19T01:58:02.149Z,87.85
2019-02-19T01:59:00.856Z,87.38
2019-02-19T01:59:59.480Z,87.85
2019-02-19T02:00:58.014Z,87.66
2019-02-19T02:01:56.568Z,87.57
2019-02-19T02:02:55.132Z,87.47
2019-02-19T02:03:53.727Z,87.57
2019-02-19T02:04:52.278Z,87.43
2019-02-19T02:05:50.878Z,87.34
2019-02-19T02:06:49.409Z,87.43
2019-02-19T02:07:47.966Z,87.43
2019-02-19T02:08:46.648Z,87.43
2019-02-19T02:09:45.224Z,87.76
2019-02-19T02:10:43.753Z,87.62
2019-02-19T02:11:42.337Z,87.43
2019-02-19T02:12:41.167Z,87.57
2019-02-19T02:13:39.743Z,87.38
2019-02-19T02:14:38.301Z,87.19
2019-02-19T02:15:42.416Z,86.8
2019-02-19T02:16:35.444Z,86.8
2019-02-19T02:17:34.000Z,86.8
2019-02-19T02:18:32.524Z,86.9
2019-02-19T02:19:31.088Z,86.61
2019-02-19T02:20:29.636Z,86.71
2019-02-19T02:21:28.186Z,86.52
2019-02-19T02:22:26.986Z,86.71
2019-02-19T02:23:25.561Z,86.33
2019-02-19T02:24:24.142Z,86.71
2019-02-19T02:25:22.742Z,86.99
2019-02-19T02:26:21.339Z,87.09
2019-02-19T02:27:19.895Z,86.71
2019-02-19T02:28:18.461Z,86.52
2019-02-19T02:29:17.108Z,86.52
2019-02-19T02:30:15.712Z,86.52
2019-02-19T02:31:14.286Z,86.61
2019-02-19T02:32:12.898Z,86.14
2019-02-19T02:33:11.435Z,86.05
2019-02-19T02:34:09.996Z,86.05
2019-02-19T02:35:11.074Z,86.24
2019-02-19T02:36:07.379Z,86.33
2019-02-19T02:37:05.923Z,86.24
2019-02-19T02:38:04.613Z,86.05
2019-02-19T02:39:03.244Z,85.38
2019-02-19T02:40:01.771Z,86.14
2019-02-19T02:41:00.333Z,86.14
2019-02-19T02:41:58.887Z,85.66
2019-02-19T02:42:57.444Z,86.33
2019-02-19T02:43:56.003Z,85.86
2019-02-19T02:44:54.590Z,85.38
2019-02-19T02:45:53.918Z,85.95
2019-02-19T02:46:51.792Z,86.14
2019-02-19T02:47:50.421Z,86.14
2019-02-19T02:48:48.956Z,85.86
2019-02-19T02:49:47.483Z,85.95
2019-02-19T02:50:46.052Z,85.76
2019-02-19T02:51:44.725Z,85.38
2019-02-19T02:52:43.355Z,86.05
2019-02-19T02:53:41.877Z,85.76
2019-02-19T02:54:40.424Z,85.86
2019-02-19T02:55:38.998Z,85.38
2019-02-19T02:56:37.570Z,85.1
2019-02-19T02:57:36.144Z,85
2019-02-19T02:58:34.664Z,85.19
2019-02-19T02:59:33.212Z,84.72
2019-02-19T03:00:31.769Z,85.1
2019-02-19T03:01:30.359Z,85.19
2019-02-19T03:02:28.937Z,85
2019-02-19T03:03:27.498Z,85.47
2019-02-19T03:04:26.038Z,85.28
2019-02-19T03:05:25.333Z,85.86
2019-02-19T03:06:23.387Z,85.38
2019-02-19T03:07:21.937Z,84.91
2019-02-19T03:08:20.598Z,85.19
2019-02-19T03:09:19.292Z,85
2019-02-19T03:10:17.837Z,85
2019-02-19T03:11:16.372Z,85
2019-02-19T03:12:14.918Z,85.1
2019-02-19T03:13:13.465Z,85.19
2019-02-19T03:14:12.015Z,84.81
2019-02-19T03:15:10.539Z,85.1
2019-02-19T03:16:09.261Z,84.62
2019-02-19T03:17:07.814Z,84.81
2019-02-19T03:18:06.443Z,84.72
2019-02-19T03:19:05.282Z,84.24
2019-02-19T03:20:03.835Z,84.62
2019-02-19T03:21:02.361Z,84.24
2019-02-19T03:22:00.990Z,83.58
2019-02-19T03:22:59.530Z,84.14
2019-02-19T03:23:58.072Z,83.95
2019-02-19T03:24:56.629Z,83.86
2019-02-19T03:25:55.203Z,84.14
2019-02-19T03:26:53.723Z,83.86
2019-02-19T03:27:52.312Z,83.95
2019-02-19T03:28:50.835Z,84.43
2019-02-19T03:29:49.493Z,83.95
2019-02-19T03:30:48.069Z,84.14
2019-02-19T03:31:46.665Z,83.67
2019-02-19T03:32:45.383Z,83.39
2019-02-19T03:33:43.930Z,83.39
2019-02-19T03:34:42.564Z,84.33
2019-02-19T03:35:41.145Z,83.29
2019-02-19T03:36:39.733Z,83.86
2019-02-19T03:37:38.332Z,83.95
2019-02-19T03:40:18.483Z,85.19
2019-02-19T03:41:17.213Z,85.19
2019-02-19T03:42:15.793Z,85.19
2019-02-19T03:43:14.335Z,85.19
2019-02-19T03:44:13.072Z,85.19
2019-02-19T03:45:11.628Z,85.15
2019-02-19T03:46:12.248Z,85.72
2019-02-19T03:47:08.775Z,85.72
2019-02-19T03:48:07.444Z,85.91
2019-02-19T03:49:05.992Z,85.91
2019-02-19T03:50:04.595Z,86.1
2019-02-19T03:51:03.279Z,86.1
2019-02-19T03:52:01.845Z,85.81
2019-02-19T03:53:00.493Z,85.43
2019-02-19T03:53:59.200Z,85.72
2019-02-19T03:56:22.183Z,85.43
2019-02-19T03:57:20.733Z,85.72
2019-02-19T03:58:19.292Z,85.81
2019-02-19T03:59:17.865Z,85.91
2019-02-19T04:00:16.409Z,85.91
2019-02-19T04:01:14.982Z,85.15
2019-02-19T04:02:13.578Z,85.15
2019-02-19T04:03:12.129Z,85.34
2019-02-19T04:04:10.713Z,86.38
2019-02-19T04:05:09.322Z,86.1
2019-02-19T04:06:07.867Z,86.57
2019-02-19T04:07:06.411Z,86.38
2019-02-19T04:08:05.014Z,86.38
2019-02-19T04:09:03.574Z,86.29
2019-02-19T04:10:02.127Z,86.47
2019-02-19T04:11:00.667Z,86.47
2019-02-19T04:11:59.232Z,85.91
2019-02-19T04:12:57.779Z,85.43
2019-02-19T04:13:56.344Z,86
2019-02-19T04:14:55.156Z,86.38
2019-02-19T04:15:53.715Z,86.47
2019-02-19T04:16:52.371Z,86.47
2019-02-19T04:17:51.018Z,86.67
2019-02-19T04:18:49.629Z,87.05
2019-02-19T04:19:48.210Z,86.47
2019-02-19T04:20:46.783Z,86.47
2019-02-19T04:21:45.318Z,86.19
2019-02-19T04:22:43.896Z,86.67
2019-02-19T04:23:42.696Z,86.38
2019-02-19T04:24:41.241Z,87.24
2019-02-19T04:25:39.757Z,86.82
2019-02-19T04:26:38.319Z,87.71
2019-02-19T04:27:36.992Z,86.86
2019-02-19T04:28:35.634Z,86.76
2019-02-19T04:29:34.153Z,86.67
2019-02-19T04:30:32.722Z,86.19
2019-02-19T04:31:31.812Z,86.67
2019-02-19T04:32:29.968Z,86.86
2019-02-19T04:33:28.519Z,86.19
2019-02-19T04:34:27.068Z,86
2019-02-19T04:35:25.598Z,86
2019-02-19T04:36:24.225Z,85.62
2019-02-19T04:37:22.748Z,85.34
2019-02-19T04:38:21.407Z,85.81
2019-02-19T04:39:19.957Z,85.62
2019-02-19T04:40:18.878Z,85.53
2019-02-19T04:41:17.525Z,86
2019-02-19T04:42:16.084Z,85.81
2019-02-19T04:43:14.653Z,85.72
2019-02-19T04:44:13.212Z,85.91
2019-02-19T04:45:11.800Z,85.72
2019-02-19T04:46:10.411Z,85.81
2019-02-19T04:47:09.161Z,86.19
2019-02-19T04:48:07.735Z,86.19
2019-02-19T04:49:06.321Z,85.62
2019-02-19T04:50:05.390Z,85.53
2019-02-19T04:51:03.976Z,86
2019-02-19T04:52:02.713Z,85.53
2019-02-19T04:53:01.372Z,85.53
2019-02-19T04:53:59.920Z,85.62
2019-02-19T04:54:58.621Z,85.81
2019-02-19T04:55:57.274Z,85.72
2019-02-19T04:56:55.823Z,85.05
2019-02-19T04:57:54.417Z,85.15
2019-02-19T04:58:52.918Z,85.34
2019-02-19T04:59:51.466Z,85.05
2019-02-19T05:00:50.030Z,85.72
2019-02-19T05:01:48.557Z,85.81
2019-02-19T05:02:47.125Z,86.19
2019-02-19T05:03:45.737Z,86.19
2019-02-19T05:04:44.475Z,86.05
2019-02-19T05:05:43.280Z,86.82
2019-02-19T05:06:41.832Z,86.67
2019-02-19T05:09:22.303Z,86.1
2019-02-19T05:10:20.983Z,86
2019-02-19T05:11:19.597Z,86.29
2019-02-19T05:12:18.134Z,86.34
2019-02-19T05:13:16.748Z,86.91
2019-02-19T05:14:15.512Z,87.67
2019-02-19T05:15:14.051Z,87.57
2019-02-19T05:16:12.615Z,87.48
2019-02-19T05:17:11.144Z,87.67
2019-02-19T05:18:09.718Z,87.57
2019-02-19T05:19:08.278Z,87.86
2019-02-19T05:20:07.078Z,87.67
2019-02-19T05:21:05.650Z,87.67
2019-02-19T05:22:04.185Z,88.34
2019-02-19T05:23:02.977Z,88.62
2019-02-19T05:24:01.819Z,88.43
2019-02-19T05:25:00.357Z,88.43
2019-02-19T05:25:58.933Z,88.05
2019-02-19T05:37:39.705Z,87.86
2019-02-19T05:38:38.271Z,87.86
2019-02-19T05:39:36.947Z,88.62
2019-02-19T05:40:35.528Z,88.71
2019-02-19T05:41:34.047Z,88.43
2019-02-19T05:42:32.602Z,88.71
2019-02-19T05:43:31.154Z,88.43
2019-02-19T05:44:29.727Z,88.24
2019-02-19T05:45:28.278Z,88.34
2019-02-19T05:46:27.095Z,89.19
2019-02-19T05:47:25.668Z,89.38
2019-02-19T05:48:24.259Z,89.38
2019-02-19T05:49:22.940Z,89.09
2019-02-19T05:50:21.552Z,89.09
2019-02-19T05:51:20.204Z,89.09
2019-02-19T05:52:18.711Z,88.81
2019-02-19T05:53:17.323Z,88.43
2019-02-19T05:54:15.855Z,88.43
2019-02-19T05:55:14.710Z,88.81
2019-02-19T05:56:13.465Z,88.62
2019-02-19T05:57:12.014Z,88.43
2019-02-19T05:58:10.598Z,88.43
2019-02-19T05:59:09.223Z,88.05
2019-02-19T06:00:07.780Z,88.71
2019-02-19T06:01:06.310Z,88.34
2019-02-19T06:02:04.868Z,87.86
2019-02-19T06:03:03.388Z,88.9
2019-02-19T06:05:43.714Z,88.53
2019-02-19T06:06:42.267Z,88.24
2019-02-19T06:07:40.863Z,89
2019-02-19T06:08:39.534Z,88.53
2019-02-19T06:09:38.163Z,88.62
2019-02-19T06:10:36.763Z,89.09
2019-02-19T06:11:35.422Z,88.81
2019-02-19T06:12:33.953Z,88.62
2019-02-19T06:13:32.506Z,88.9
2019-02-19T06:14:31.077Z,88.24
2019-02-19T06:15:29.635Z,88.53
2019-02-19T06:16:28.189Z,88.43
2019-02-19T06:34:11.207Z,91.75
2019-02-19T06:35:09.744Z,93.46
2019-02-19T06:36:08.299Z,92.61
2019-02-19T06:37:06.874Z,92.32
2019-02-19T06:38:05.523Z,99.99
2019-02-19T06:39:04.079Z,99.99
2019-02-19T06:40:02.649Z,99.99
2019-02-19T06:41:02.001Z,99.99
2019-02-19T06:41:59.938Z,99.99
2019-02-19T06:42:58.623Z,99.99
2019-02-19T06:43:57.202Z,99.99
2019-02-19T06:44:55.755Z,99.99
2019-02-19T06:45:54.311Z,99.55
2019-02-19T06:46:52.845Z,99.93
2019-02-19T06:47:51.392Z,99.45
2019-02-19T06:48:50.025Z,99.99
2019-02-19T06:49:48.818Z,99.99
2019-02-19T06:50:47.506Z,99.99
2019-02-19T06:51:46.072Z,99.99
2019-02-19T06:52:44.640Z,99.99
2019-02-19T06:53:43.317Z,99.99
2019-02-19T06:54:42.463Z,99.99
2019-02-19T06:55:41.267Z,99.99
2019-02-19T06:56:39.904Z,99.99
2019-02-19T06:57:38.450Z,99.99
2019-02-19T06:58:37.014Z,99.74
2019-02-19T06:59:35.589Z,98.69
2019-02-19T07:00:34.201Z,98.6
2019-02-19T07:01:32.759Z,98.5
2019-02-19T07:02:31.330Z,98.41
2019-02-19T07:03:29.878Z,97.74
2019-02-19T07:04:28.494Z,96.41
2019-02-19T07:05:27.105Z,96.17
2019-02-19T07:06:26.151Z,93.94
2019-02-19T07:07:24.628Z,95.51
2019-02-19T07:08:23.219Z,95.89
2019-02-19T07:09:21.748Z,96.84
2019-02-19T07:10:20.525Z,98.65
2019-02-19T07:11:19.200Z,97.79
2019-02-19T07:12:17.879Z,95.98
2019-02-19T07:13:16.435Z,96.84
2019-02-19T07:14:15.071Z,96.94
2019-02-19T07:15:13.680Z,99.99
2019-02-19T07:16:12.222Z,99.99
2019-02-19T07:17:15.606Z,99.99
2019-02-19T07:18:09.436Z,99.99
2019-02-19T07:19:07.973Z,99.99
2019-02-19T07:20:06.826Z,99.99
2019-02-19T07:21:05.533Z,99.99
2019-02-19T07:22:04.078Z,99.99
2019-02-19T07:23:02.765Z,99.99
2019-02-19T07:24:04.318Z,99.99
2019-02-19T07:24:59.888Z,99.99
2019-02-19T07:25:58.429Z,99.99
2019-02-19T07:26:57.142Z,99.99
2019-02-19T07:27:55.706Z,99.99
2019-02-19T07:28:54.419Z,99.99
2019-02-19T07:29:53.311Z,99.99
2019-02-19T07:30:51.925Z,99.99
2019-02-19T07:31:50.467Z,99.99
2019-02-19T07:32:49.151Z,99.99
2019-02-19T07:33:47.709Z,99.99
2019-02-19T07:34:46.294Z,99.99
2019-02-19T07:35:45.010Z,99.99
2019-02-19T07:36:43.563Z,99.99
2019-02-19T07:37:42.185Z,99.99
2019-02-19T07:38:40.946Z,99.99
2019-02-19T07:39:39.604Z,99.99
2019-02-19T07:40:38.128Z,99.99
2019-02-19T07:41:36.685Z,99.98
2019-02-19T07:42:35.240Z,98.46
2019-02-19T07:43:33.848Z,97.36
2019-02-19T07:44:32.388Z,95.46
2019-02-19T07:45:31.208Z,94.89
2019-02-19T07:46:29.955Z,92.08
2019-02-19T07:47:28.599Z,92.69
2019-02-19T07:48:27.210Z,92.69
2019-02-19T07:49:25.771Z,89.98
2019-02-19T07:50:24.646Z,91.08
2019-02-19T07:51:23.363Z,91.08
2019-02-19T07:52:21.922Z,90.7
2019-02-19T07:53:20.634Z,90.31
2019-02-19T07:54:19.299Z,89.75
2019-02-19T07:55:17.892Z,88.7
2019-02-19T07:56:16.426Z,90.5
2019-02-19T07:57:15.003Z,90.7
2019-02-19T07:58:13.539Z,99.99
2019-02-19T07:59:12.184Z,99.99
2019-02-19T08:00:11.007Z,99.99
2019-02-19T08:01:09.706Z,99.99
2019-02-19T08:02:09.247Z,99.99
2019-02-19T08:03:07.852Z,99.99
2019-02-19T08:04:06.433Z,99.99
2019-02-19T08:05:05.001Z,99.99
2019-02-19T08:06:03.595Z,99.99
2019-02-19T08:07:02.132Z,95.51
2019-02-19T08:08:00.689Z,93.98
2019-02-19T08:08:59.441Z,99.13
2019-02-19T08:09:57.987Z,99.99
2019-02-19T08:10:56.763Z,99.99
2019-02-19T08:11:55.419Z,99.99
2019-02-19T08:12:53.991Z,99.99
2019-02-19T08:13:52.593Z,99.99
2019-02-19T08:14:51.168Z,99.99
2019-02-19T08:15:49.726Z,99.99
2019-02-19T08:16:48.327Z,99.99
2019-02-19T08:17:46.852Z,99.99
2019-02-19T08:18:45.524Z,97.89
2019-02-19T08:19:44.086Z,93.22
2019-02-19T08:20:42.676Z,91.41
2019-02-19T08:21:41.334Z,89.84
2019-02-19T08:22:39.912Z,90.03
2019-02-19T08:23:38.544Z,99.99
2019-02-19T08:24:37.210Z,99.99
2019-02-19T08:25:35.787Z,99.99
2019-02-19T08:26:34.369Z,99.99
2019-02-19T08:27:33.013Z,99.99
2019-02-19T08:28:31.600Z,99.99
2019-02-19T08:29:30.158Z,94.37
2019-02-19T08:30:28.876Z,91.41
2019-02-19T08:31:27.643Z,88.74
2019-02-19T08:32:26.206Z,86.79
2019-02-19T08:33:25.196Z,87.65
2019-02-19T08:34:23.768Z,90.6
2019-02-19T08:35:22.376Z,92.69
2019-02-19T08:36:21.056Z,92.41
2019-02-19T08:37:19.710Z,92.22
2019-02-19T08:38:18.318Z,91.36
2019-02-19T08:39:17.044Z,92.89
2019-02-19T08:40:15.623Z,95.46
2019-02-19T08:41:14.147Z,99.99
2019-02-19T08:42:12.954Z,99.99
2019-02-19T08:43:11.505Z,99.99
2019-02-19T08:44:10.062Z,99.99
2019-02-19T08:45:08.686Z,99.99
2019-02-19T08:46:07.462Z,99.99
2019-02-19T08:47:06.033Z,99.99
2019-02-19T08:48:04.567Z,98.94
2019-02-19T08:49:03.240Z,94.46
2019-02-19T08:50:01.807Z,91.88
2019-02-19T08:51:00.343Z,89.4
2019-02-19T08:51:58.918Z,88.45
2019-02-19T08:52:57.540Z,86.93
2019-02-19T08:53:56.125Z,84.97
2019-02-19T08:54:54.842Z,84.16
2019-02-19T08:55:53.870Z,85.41
2019-02-19T08:56:53.296Z,86.26
2019-02-19T08:57:51.347Z,86.83
2019-02-19T08:58:50.524Z,88.88
2019-02-19T08:59:48.738Z,88.31
2019-02-19T09:00:47.375Z,87.74
2019-02-19T09:01:45.962Z,87.64
2019-02-19T09:02:44.457Z,93.36
2019-02-19T09:03:43.023Z,99.99
2019-02-19T09:04:41.630Z,99.99
2019-02-19T09:05:40.286Z,99.99
2019-02-19T09:06:39.010Z,99.99
2019-02-19T09:07:46.733Z,99.99
2019-02-19T09:08:45.247Z,99.99
2019-02-19T09:09:43.766Z,99.99
2019-02-19T09:10:42.347Z,95.37
2019-02-19T09:11:40.919Z,92.32
2019-02-19T09:12:39.503Z,90.03
2019-02-19T09:13:38.281Z,90.79
2019-02-19T09:14:36.945Z,90.79
2019-02-19T09:15:35.590Z,89.36
2019-02-19T09:16:34.128Z,99.99
2019-02-19T09:17:32.738Z,99.99
2019-02-19T09:18:31.331Z,99.99
2019-02-19T09:19:29.876Z,99.99
2019-02-19T09:20:28.575Z,99.99
2019-02-19T09:21:27.107Z,99.99
2019-02-19T09:22:25.633Z,99.99
2019-02-19T09:23:24.214Z,96.8
2019-02-19T09:24:22.872Z,92.22
2019-02-19T09:25:21.501Z,90.5
2019-02-19T09:26:20.073Z,90.69
2019-02-19T09:27:43.279Z,89.17
2019-02-19T09:28:40.022Z,94.46
2019-02-19T09:29:38.569Z,99.99
2019-02-19T09:30:37.413Z,99.99
2019-02-19T09:31:35.931Z,99.99
2019-02-19T09:32:34.618Z,99.99
2019-02-19T09:33:33.438Z,99.99
2019-02-19T09:34:32.034Z,96.8
2019-02-19T09:35:30.549Z,88.5
2019-02-19T09:36:29.310Z,86.02
2019-02-19T09:37:27.782Z,85.64
2019-02-19T09:38:26.324Z,86.3
2019-02-19T09:41:06.969Z,85.83
2019-02-19T09:42:05.628Z,85.35
2019-02-19T09:43:04.169Z,85.97
2019-02-19T09:44:02.738Z,89.26
2019-02-19T09:45:01.307Z,96.66
2019-02-19T09:45:59.847Z,99.99
2019-02-19T09:46:58.378Z,99.99
2019-02-19T09:48:01.117Z,99.99
2019-02-19T09:48:55.577Z,99.99
2019-02-19T09:49:54.124Z,93.41
2019-02-19T10:08:18.284Z,80.62
2019-02-19T10:09:17.119Z,80.43
2019-02-19T10:10:15.745Z,80.15
2019-02-19T10:11:14.468Z,79.48
2019-02-19T10:12:13.008Z,79.38
2019-02-19T10:13:11.642Z,79.96
2019-02-19T10:14:10.387Z,80.81
2019-02-19T10:15:08.922Z,79.96
2019-02-19T10:16:07.795Z,80.05
2019-02-19T10:17:06.596Z,80.05
2019-02-19T10:18:10.204Z,80.33
2019-02-19T10:19:03.727Z,80.33
2019-02-19T10:20:02.335Z,80.62
2019-02-19T10:21:01.107Z,86.63
2019-02-19T10:21:59.749Z,89.5
2019-02-19T10:22:58.432Z,99.99
2019-02-19T10:23:57.047Z,99.99
2019-02-19T10:24:55.693Z,99.99
2019-02-19T10:25:54.599Z,99.99
2019-02-19T10:26:53.397Z,99.99
2019-02-19T10:27:51.987Z,92.88
2019-02-19T10:28:50.603Z,93.41
2019-02-19T10:29:49.192Z,99.99
2019-02-19T10:30:47.719Z,99.99
2019-02-19T10:31:46.253Z,99.99
2019-02-19T10:32:44.790Z,99.99
2019-02-19T10:33:43.341Z,93.02
2019-02-19T10:34:41.983Z,91.02
2019-02-19T10:35:40.649Z,92.36
2019-02-19T10:36:39.687Z,99.99
2019-02-19T10:37:38.414Z,99.99
2019-02-19T10:38:37.432Z,90.64
2019-02-19T10:39:36.082Z,93.41
2019-02-19T10:40:34.648Z,95.03
2019-02-19T10:41:33.308Z,93.02
2019-02-19T10:42:31.933Z,99.99
2019-02-19T10:43:30.481Z,99.99
2019-02-19T10:44:29.656Z,99.99
2019-02-19T10:45:28.541Z,99.99
2019-02-19T10:46:26.976Z,95.89
2019-02-19T10:47:25.727Z,89.5
2019-02-19T10:48:24.295Z,87.97
2019-02-19T10:49:22.839Z,88.07
2019-02-19T10:50:21.494Z,86.3
2019-02-19T10:51:20.538Z,85.45
2019-02-19T10:52:19.779Z,99.99
2019-02-19T10:53:18.503Z,99.99
2019-02-19T10:54:17.382Z,99.99
2019-02-19T10:55:16.044Z,99.99
2019-02-19T10:56:14.765Z,99.99
2019-02-19T10:57:13.495Z,99.99
2019-02-19T10:58:12.136Z,99.99
2019-02-19T10:59:10.787Z,99.99
2019-02-19T11:00:09.475Z,99.13
2019-02-19T11:01:08.129Z,99.99
2019-02-19T11:02:06.789Z,98.66
2019-02-19T11:03:05.540Z,90.17
2019-02-19T11:04:04.255Z,89.5
2019-02-19T11:05:03.046Z,88.73
2019-02-19T11:06:01.928Z,87.59
2019-02-19T11:07:00.584Z,87.3
2019-02-19T11:07:59.142Z,87.21
2019-02-19T11:08:57.656Z,96.84
2019-02-19T11:09:56.264Z,99.99
2019-02-19T11:10:54.856Z,99.99
2019-02-19T11:11:53.674Z,99.99
2019-02-19T11:12:52.310Z,99.99
2019-02-19T11:13:51.204Z,99.99
2019-02-19T11:14:49.962Z,99.99
2019-02-19T11:15:48.798Z,99.99
2019-02-19T11:16:47.648Z,92.93
2019-02-19T11:17:46.165Z,91.41
2019-02-19T11:18:44.817Z,99.99
2019-02-19T11:19:43.486Z,99.99
2019-02-19T11:20:42.098Z,99.99
2019-02-19T11:21:40.869Z,99.99
2019-02-19T11:22:39.691Z,99.99
2019-02-19T11:23:38.505Z,99.99
2019-02-19T11:24:37.063Z,99.99
2019-02-19T11:25:35.755Z,99.99
2019-02-19T11:26:34.381Z,98.18
2019-02-19T11:27:33.273Z,99.99
2019-02-19T11:28:31.694Z,99.99
2019-02-19T11:29:30.250Z,99.99
2019-02-19T11:30:28.812Z,99.99
2019-02-19T11:31:27.780Z,99.99
2019-02-19T11:32:26.414Z,99.99
2019-02-19T11:33:25.107Z,99.99
2019-02-19T11:34:23.892Z,97.51
2019-02-19T11:35:22.471Z,96.37
2019-02-19T11:36:21.555Z,92.55
2019-02-19T11:37:20.298Z,97.32
2019-02-19T11:38:19.137Z,94.93
2019-02-19T11:39:17.636Z,94.65
2019-02-19T11:40:16.456Z,91.69
2019-02-19T11:41:15.158Z,99.99
2019-02-19T11:42:13.869Z,99.32
2019-02-19T11:43:12.395Z,99.99
2019-02-19T11:44:11.178Z,93.7
2019-02-19T11:45:09.765Z,91.02
2019-02-19T11:46:08.362Z,90.83
2019-02-19T11:48:48.995Z,87.02
2019-02-19T11:49:47.722Z,87.11
2019-02-19T11:50:46.683Z,87.11
2019-02-19T11:51:45.493Z,88.45
2019-02-19T11:52:44.049Z,88.45
2019-02-19T11:53:42.633Z,86.92
2019-02-19T11:54:41.214Z,87.02
2019-02-19T11:55:39.760Z,86.82
2019-02-19T11:56:38.499Z,88.16
2019-02-19T11:57:37.018Z,87.78
2019-02-19T11:58:35.703Z,87.78
2019-02-19T11:59:34.249Z,86.35
2019-02-19T12:00:32.886Z,86.44
2019-02-19T12:01:31.634Z,86.63
2019-02-19T12:02:32.820Z,87.11
2019-02-19T12:03:28.756Z,86.69
2019-02-19T12:04:27.419Z,87.16
2019-02-19T12:05:26.001Z,87.97
2019-02-19T12:06:24.511Z,88.69
2019-02-19T12:07:23.348Z,89.97
2019-02-19T12:08:21.965Z,88.92
2019-02-19T12:09:20.678Z,89.26
2019-02-19T12:10:19.383Z,87.59
2019-02-19T12:11:18.003Z,89.02
2019-02-19T12:12:16.534Z,86.92
2019-02-19T12:13:15.114Z,87.78
2019-02-19T12:14:13.643Z,89.21
2019-02-19T12:15:12.220Z,90.55
2019-02-19T12:16:10.857Z,90.55
2019-02-19T12:17:09.454Z,95.7
2019-02-19T12:18:07.965Z,97.61
2019-02-19T12:19:06.622Z,99.99
2019-02-19T12:20:05.372Z,99.99
2019-02-19T12:21:03.923Z,97.61
2019-02-19T12:22:02.511Z,94.84
2019-02-19T12:23:01.162Z,96.17
2019-02-19T12:23:59.840Z,91.5
2019-02-19T12:24:58.386Z,89.88
2019-02-19T12:25:57.231Z,90.17
2019-02-19T12:26:55.781Z,89.02
2019-02-19T12:27:54.338Z,89.02
2019-02-19T12:28:52.971Z,89.4
2019-02-19T12:29:51.622Z,88.26
2019-02-19T12:30:50.162Z,87.78
2019-02-19T12:31:48.772Z,86.92
2019-02-19T12:32:47.336Z,88.83
2019-02-19T12:33:45.890Z,88.26
2019-02-19T12:34:44.445Z,87.11
2019-02-19T12:35:43.239Z,87.11
2019-02-19T12:36:41.826Z,87.3
2019-02-19T12:37:40.369Z,87.97
2019-02-19T12:38:39.165Z,88.92
2019-02-19T12:39:37.720Z,86.82
2019-02-19T12:40:36.273Z,87.4
2019-02-19T12:41:34.885Z,88.35
2019-02-19T12:42:33.565Z,87.87
2019-02-19T12:43:32.115Z,86.54
2019-02-19T12:44:31.145Z,86.44
2019-02-19T12:45:29.731Z,86.25
2019-02-19T12:46:28.280Z,86.54
2019-02-19T12:47:26.947Z,86.73
2019-02-19T12:48:25.606Z,85.87
2019-02-19T12:49:24.180Z,85.68
2019-02-19T12:50:22.969Z,85.68
2019-02-19T12:51:26.341Z,85.87
2019-02-19T12:52:20.098Z,85.58
2019-02-19T12:53:18.702Z,85.49
2019-02-19T12:54:17.478Z,85.49
2019-02-19T12:55:16.040Z,84.72
2019-02-19T12:56:14.610Z,84.72
2019-02-19T12:57:14.673Z,85.11
2019-02-19T12:58:11.784Z,84.82
2019-02-19T12:59:10.325Z,85.11
2019-02-19T13:00:08.883Z,84.72
2019-02-19T13:01:07.485Z,85.34
2019-02-19T13:02:06.046Z,85.63
2019-02-19T13:03:04.597Z,84.72
2019-02-19T13:04:03.305Z,84.72
2019-02-19T13:05:01.874Z,84.2
2019-02-19T13:06:00.438Z,84.29
2019-02-19T13:06:59.268Z,84.2
2019-02-19T13:07:57.923Z,84.29
2019-02-19T13:08:56.519Z,84.1
2019-02-19T13:09:55.020Z,84
2019-02-19T13:10:53.543Z,84.48
2019-02-19T13:11:52.146Z,84.29
2019-02-19T13:12:50.934Z,84.48
2019-02-19T13:13:49.637Z,83.72
2019-02-19T13:14:48.184Z,83.34
2019-02-19T13:15:46.782Z,83.14
2019-02-19T13:16:45.439Z,83.34
2019-02-19T13:17:43.974Z,83.24
2019-02-19T13:18:42.516Z,82.67
2019-02-19T13:19:41.081Z,82.57
2019-02-19T13:20:39.672Z,82.61
2019-02-19T13:21:38.219Z,82.76
2019-02-19T13:22:37.177Z,82.71
2019-02-19T13:23:35.848Z,82.23
2019-02-19T13:24:34.412Z,82.52
2019-02-19T13:25:34.060Z,81.71
2019-02-19T13:26:31.823Z,82.09
2019-02-19T13:27:30.369Z,82.23
2019-02-19T13:28:28.967Z,81.95
2019-02-19T13:29:27.712Z,81.76
2019-02-19T13:30:26.322Z,81.56
2019-02-19T13:31:24.893Z,81.47
2019-02-19T13:32:23.592Z,81.56
2019-02-19T13:33:22.167Z,81.37